Time;durP1;ratioP1;P1;durP2;ratioP2;P2;SDS_P1;SDS_P2;PMS_P1;PMS_P2;Temp;Humidity;BMP_temperature;BMP_pressure;BME280_temperature;BME280_humidity;BME280_pressure;Samples;Min_cycle;Max_cycle;Signal;HPM_P1;HPM_P2
2023/04/14 00:01:23;;;;;;;;;;;;;;;;;;4952908;28;7041;-94
2023/04/14 00:03:49;;;;;;;;;;;;;;;;;;4953432;28;6896;-93
2023/04/14 00:06:15;;;;;;;;;;;;;;;;;;4972058;28;7106;-94
2023/04/14 00:08:40;;;;;;;;;;;;;;;;;;4972180;28;7242;-95
2023/04/14 00:11:05;;;;;;;;;;;;;;;;;;4971912;28;8501;-95
2023/04/14 00:13:31;;;;;;;;;;;;;;;;;;4971923;28;6987;-94
2023/04/14 00:15:57;;;;;;;;;;;;;;;;;;4971904;28;8393;-94
2023/04/14 00:18:22;;;;;;;;;;;;;;;;;;4971932;28;7018;-94
2023/04/14 00:20:48;;;;;;;;;;;;;;;;;;4971748;28;7043;-92
2023/04/14 00:23:13;;;;;;;;;;;;;;;;;;4971747;28;8459;-94
2023/04/14 00:25:39;;;;;;;;;;;;;;;;;;4971651;28;7110;-95
2023/04/14 00:28:05;;;;;;;;;;;;;;;;;;4971347;28;6960;-93
2023/04/14 00:30:30;;;;;;;;;;;;;;;;;;4971628;28;7215;-93
2023/04/14 00:32:56;;;;;;;;;;;;;;;;;;4971714;28;8579;-93
2023/04/14 00:35:23;;;;;;;;;;;;;;;;;;4971429;28;8288;-93
2023/04/14 00:37:50;;;;;;;;;;;;;;;;;;4971190;28;7179;-92
2023/04/14 00:40:16;;;;;;;;;;;;;;;;;;4967988;28;7347;-92
2023/04/14 00:42:43;;;;;;;;;;;;;;;;;;4951301;28;7033;-95
2023/04/14 00:45:09;;;;;;;;;;;;;;;;;;4967822;28;7140;-91
2023/04/14 00:47:35;;;;;;;;;;;;;;;;;;4967723;28;7049;-94
2023/04/14 00:50:02;;;;;;;;;;;;;;;;;;4968001;28;6917;-96
2023/04/14 00:52:30;;;;;;;;;;;;;;;;;;4966644;28;7037;-95
2023/04/14 00:54:58;;;;;;;;;;;;;;;;;;4968131;28;8963;-92
2023/04/14 00:57:24;;;;;;;;;;;;;;;;;;4967897;28;8508;-93
2023/04/14 00:59:50;;;;;;;;;;;;;;;;;;4967952;28;7133;-94
2023/04/14 01:02:16;;;;;;;;;;;;;;;;;;4967938;28;7047;-94
2023/04/14 01:04:43;;;;;;;;;;;;;;;;;;4977590;28;8284;-93
2023/04/14 01:07:08;;;;;;;;;;;;;;;;;;4951744;28;7076;-93
2023/04/14 01:09:34;;;;;;;;;;;;;;;;;;4967636;28;7207;-92
2023/04/14 01:12:01;;;;;;;;;;;;;;;;;;4967595;28;7073;-93
2023/04/14 01:14:26;;;;;;;;;;;;;;;;;;4951662;28;7060;-92
2023/04/14 01:16:57;;;;;;;;;;;;;;;;;;4951571;28;7114;-94
2023/04/14 01:19:55;;;;;;;;;;;;;;;;;;4951307;28;7051;-93
2023/04/14 01:22:24;;;;;;;;;;;;;;;;;;4944733;28;7178;-94
2023/04/14 01:24:51;;;;;;;;;;;;;;;;;;4951454;28;8549;-93
2023/04/14 01:27:35;;;;;;;;;;;;;;;;;;4951114;28;7057;-94
2023/04/14 01:30:24;;;;;;;;;;;;;;;;;;4967347;28;8405;-94
2023/04/14 01:32:54;;;;;;;;;;;;;;;;;;4924030;28;7417;-92
2023/04/14 01:35:28;;;;;;;;;;;;;;;;;;4951377;28;7186;-94
2023/04/14 01:38:01;;;;;;;;;;;;;;;;;;4951218;28;8720;-93
2023/04/14 01:40:27;;;;;;;;;;;;;;;;;;4951181;28;8320;-93
2023/04/14 01:42:59;;;;;;;;;;;;;;;;;;4950934;28;8308;-94
2023/04/14 01:45:28;;;;;;;;;;;;;;;;;;4950831;28;8379;-92
2023/04/14 01:47:54;;;;;;;;;;;;;;;;;;4950840;28;8425;-95
2023/04/14 01:50:21;;;;;;;;;;;;;;;;;;4950949;28;7285;-93
2023/04/14 01:52:52;;;;;;;;;;;;;;;;;;4950924;28;7155;-92
2023/04/14 01:55:21;;;;;;;;;;;;;;;;;;4950970;28;7252;-93
2023/04/14 01:57:49;;;;;;;;;;;;;;;;;;4950728;28;7077;-94
2023/04/14 02:00:17;;;;;;;;;;;;;;;;;;4950568;28;7063;-93
2023/04/14 02:02:45;;;;;;;;;;;;;;;;;;4950638;28;8483;-91
2023/04/14 02:05:12;;;;;;;;;;;;;;;;;;4950169;28;7313;-94
2023/04/14 02:07:40;;;;;;;;;;;;;;;;;;4950552;28;7107;-92
2023/04/14 02:10:09;;;;;;;;;;;;;;;;;;4950730;29;7132;-96
2023/04/14 02:12:40;;;;;;;;;;;;;;;;;;4950619;28;6875;-94
2023/04/14 02:15:12;;;;;;;;;;;;;;;;;;4950602;29;7026;-94
2023/04/14 02:17:42;;;;;;;;;;;;;;;;;;4950763;29;7070;-93
2023/04/14 02:20:09;;;;;;;;;;;;;;;;;;4950457;28;7047;-93
2023/04/14 02:22:35;;;;;;;;;;;;;;;;;;4950294;29;7182;-93
2023/04/14 02:25:01;;;;;;;;;;;;;;;;;;4950605;28;7041;-93
2023/04/14 02:27:33;;;;;;;;;;;;;;;;;;4950335;29;7047;-93
2023/04/14 02:30:02;;;;;;;;;;;;;;;;;;4950428;29;7044;-94
2023/04/14 02:32:30;;;;;;;;;;;;;;;;;;4950368;29;7262;-92
2023/04/14 02:35:15;;;;;;;;;;;;;;;;;;4950427;29;7044;-91
2023/04/14 02:37:44;;;;;;;;;;;;;;;;;;4949968;28;8731;-93
2023/04/14 02:40:13;;;;;;;;;;;;;;;;;;4949193;29;8348;-94
2023/04/14 02:42:43;;;;;;;;;;;;;;;;;;4949505;29;8528;-92
2023/04/14 02:45:13;;;;;;;;;;;;;;;;;;4949258;29;7068;-94
2023/04/14 02:47:43;;;;;;;;;;;;;;;;;;4949318;29;7033;-93
2023/04/14 02:50:11;;;;;;;;;;;;;;;;;;4949349;29;8519;-94
2023/04/14 02:52:39;;;;;;;;;;;;;;;;;;4949122;29;7197;-94
2023/04/14 02:55:06;;;;;;;;;;;;;;;;;;4949860;29;8903;-92
2023/04/14 02:57:33;;;;;;;;;;;;;;;;;;4950367;29;7056;-92
2023/04/14 02:59:59;;;;;;;;;;;;;;;;;;4950055;29;7637;-93
2023/04/14 03:02:26;;;;;;;;;;;;;;;;;;4949987;29;7047;-93
2023/04/14 03:04:53;;;;;;;;;;;;;;;;;;4949888;28;8446;-94
2023/04/14 03:07:20;;;;;;;;;;;;;;;;;;4966122;29;8393;-93
2023/04/14 03:09:49;;;;;;;;;;;;;;;;;;4950166;29;7138;-94
2023/04/14 03:12:16;;;;;;;;;;;;;;;;;;4947309;29;7163;-92
2023/04/14 03:14:43;;;;;;;;;;;;;;;;;;4965812;28;8759;-92
2023/04/14 03:17:13;;;;;;;;;;;;;;;;;;4968244;28;7029;-93
2023/04/14 03:19:40;;;;;;;;;;;;;;;;;;4967350;28;6856;-93
2023/04/14 03:22:11;;;;;;;;;;;;;;;;;;4951064;28;8912;-92
2023/04/14 03:24:38;;;;;;;;;;;;;;;;;;4951199;28;8651;-92
2023/04/14 03:27:06;;;;;;;;;;;;;;;;;;4953136;28;8699;-93
2023/04/14 03:29:44;;;;;;;;;;;;;;;;;;4953078;28;8413;-94
2023/04/14 03:32:13;;;;;;;;;;;;;;;;;;4953015;28;8376;-92
2023/04/14 03:34:45;;;;;;;;;;;;;;;;;;4969224;28;7099;-94
2023/04/14 03:37:13;;;;;;;;;;;;;;;;;;4969118;28;8389;-93
2023/04/14 03:39:39;;;;;;;;;;;;;;;;;;4953172;28;7043;-93
2023/04/14 03:42:09;;;;;;;;;;;;;;;;;;4969463;28;8518;-93
2023/04/14 03:44:38;;;;;;;;;;;;;;;;;;4953531;28;6829;-95
2023/04/14 03:47:06;;;;;;;;;;;;;;;;;;4953225;28;7057;-94
2023/04/14 03:49:36;;;;;;;;;;;;;;;;;;4953049;28;7014;-93
2023/04/14 03:52:05;;;;;;;;;;;;;;;;;;4953106;28;7301;-93
2023/04/14 03:54:32;;;;;;;;;;;;;;;;;;4953204;28;8538;-94
2023/04/14 03:57:00;;;;;;;;;;;;;;;;;;4952881;28;7060;-93
2023/04/14 03:59:28;;;;;;;;;;;;;;;;;;4952773;28;8353;-94
2023/04/14 04:01:55;;;;;;;;;;;;;;;;;;4952798;28;8429;-92
2023/04/14 04:04:25;;;;;;;;;;;;;;;;;;4952777;28;7120;-93
2023/04/14 04:06:52;;;;;;;;;;;;;;;;;;4952959;28;6834;-93
2023/04/14 04:09:20;;;;;;;;;;;;;;;;;;4952495;28;7202;-93
2023/04/14 04:11:48;;;;;;;;;;;;;;;;;;4952801;28;7031;-94
2023/04/14 04:14:16;;;;;;;;;;;;;;;;;;4968372;28;6895;-94
2023/04/14 04:16:45;;;;;;;;;;;;;;;;;;4968124;28;7154;-94
2023/04/14 04:19:13;;;;;;;;;;;;;;;;;;4967394;28;7268;-93
2023/04/14 04:21:41;;;;;;;;;;;;;;;;;;4967231;28;7072;-95
2023/04/14 04:24:08;;;;;;;;;;;;;;;;;;4968173;28;7187;-93
2023/04/14 04:26:37;;;;;;;;;;;;;;;;;;4967498;28;7029;-94
2023/04/14 04:29:03;;;;;;;;;;;;;;;;;;4968264;28;7699;-94
2023/04/14 04:31:31;;;;;;;;;;;;;;;;;;4967908;28;7056;-95
2023/04/14 04:33:57;;;;;;;;;;;;;;;;;;4967505;28;8933;-94
2023/04/14 04:36:27;;;;;;;;;;;;;;;;;;4967950;28;8415;-93
2023/04/14 04:38:53;;;;;;;;;;;;;;;;;;4962464;28;7346;-93
2023/04/14 04:41:26;;;;;;;;;;;;;;;;;;4967837;28;7159;-92
2023/04/14 04:43:51;;;;;;;;;;;;;;;;;;4967657;28;7269;-94
2023/04/14 04:46:31;;;;;;;;;;;;;;;;;;4967601;28;7153;-93
2023/04/14 04:48:56;;;;;;;;;;;;;;;;;;4967462;28;7093;-93
2023/04/14 04:51:22;;;;;;;;;;;;;;;;;;4966886;28;7044;-95
2023/04/14 04:53:47;;;;;;;;;;;;;;;;;;4967049;28;8501;-93
2023/04/14 04:56:13;;;;;;;;;;;;;;;;;;4949763;28;7092;-92
2023/04/14 04:58:38;;;;;;;;;;;;;;;;;;4966158;28;8503;-95
2023/04/14 05:01:08;;;;;;;;;;;;;;;;;;4950104;28;8648;-95
2023/04/14 05:03:33;;;;;;;;;;;;;;;;;;4949719;28;7190;-94
2023/04/14 05:05:59;;;;;;;;;;;;;;;;;;4964610;28;7252;-93
2023/04/14 05:08:24;;;;;;;;;;;;;;;;;;4966506;28;7122;-94
2023/04/14 05:10:50;;;;;;;;;;;;;;;;;;4967515;28;7221;-93
2023/04/14 05:13:15;;;;;;;;;;;;;;;;;;4984276;28;7031;-94
2023/04/14 05:15:41;;;;;;;;;;;;;;;;;;4983801;28;8422;-94
2023/04/14 05:18:07;;;;;;;;;;;;;;;;;;4983832;28;7038;-94
2023/04/14 05:20:32;;;;;;;;;;;;;;;;;;4983692;28;8419;-95
2023/04/14 05:22:58;;;;;;;;;;;;;;;;;;4983493;28;8463;-93
2023/04/14 05:25:23;;;;;;;;;;;;;;;;;;4983686;28;6851;-92
2023/04/14 05:27:49;;;;;;;;;;;;;;;;;;4983775;28;7064;-93
2023/04/14 05:30:15;;;;;;;;;;;;;;;;;;4983575;28;8057;-95
2023/04/14 05:32:40;;;;;;;;;;;;;;;;;;4983409;28;8407;-94
2023/04/14 05:35:06;;;;;;;;;;;;;;;;;;4983024;28;7039;-95
2023/04/14 05:37:32;;;;;;;;;;;;;;;;;;4983443;28;8670;-93
2023/04/14 05:39:57;;;;;;;;;;;;;;;;;;4965422;28;8314;-93
2023/04/14 05:42:23;;;;;;;;;;;;;;;;;;4979821;28;8545;-95
2023/04/14 05:44:48;;;;;;;;;;;;;;;;;;4964467;28;6869;-94
2023/04/14 05:47:17;;;;;;;;;;;;;;;;;;4976317;28;8442;-93
2023/04/14 05:49:46;;;;;;;;;;;;;;;;;;4983836;28;7055;-92
2023/04/14 05:52:11;;;;;;;;;;;;;;;;;;4985304;28;8482;-93
2023/04/14 05:57:29;;;;;;;;;;;;;;;;;;4981161;28;7017;-96
2023/04/14 05:59:55;;;;;;;;;;;;;;;;;;4983328;28;8398;-94
2023/04/14 06:02:24;;;;;;;;;;;;;;;;;;4987158;28;6846;-96
2023/04/14 06:04:50;;;;;;;;;;;;;;;;;;4978533;28;6906;-93
2023/04/14 06:07:15;;;;;;;;;;;;;;;;;;4966448;28;7058;-93
2023/04/14 06:09:41;;;;;;;;;;;;;;;;;;4966684;28;6829;-95
2023/04/14 06:12:07;;;;;;;;;;;;;;;;;;4966793;28;6845;-93
2023/04/14 06:14:33;;;;;;;;;;;;;;;;;;4966611;28;8261;-94
2023/04/14 06:16:58;;;;;;;;;;;;;;;;;;4966309;28;6993;-95
2023/04/14 06:19:24;;;;;;;;;;;;;;;;;;4966502;28;6844;-96
2023/04/14 06:21:50;;;;;;;;;;;;;;;;;;4966253;28;7060;-95
2023/04/14 06:24:16;;;;;;;;;;;;;;;;;;4966453;28;8351;-95
2023/04/14 06:26:42;;;;;;;;;;;;;;;;;;4966479;28;6993;-94
2023/04/14 06:29:08;;;;;;;;;;;;;;;;;;4966286;28;6856;-93
2023/04/14 06:31:35;;;;;;;;;;;;;;;;;;4966155;29;6854;-95
2023/04/14 06:34:01;;;;;;;;;;;;;;;;;;4966338;29;7279;-94
2023/04/14 06:36:26;;;;;;;;;;;;;;;;;;4966370;29;7093;-92
2023/04/14 06:38:52;;;;;;;;;;;;;;;;;;4966141;29;8409;-93
2023/04/14 06:41:17;;;;;;;;;;;;;;;;;;4966133;29;7276;-93
2023/04/14 06:43:43;;;;;;;;;;;;;;;;;;4966423;29;8613;-93
2023/04/14 06:46:09;;;;;;;;;;;;;;;;;;4963651;29;7051;-93
2023/04/14 06:48:35;;;;;;;;;;;;;;;;;;4960502;29;7078;-92
2023/04/14 06:51:00;;;;;;;;;;;;;;;;;;4958949;28;8439;-94
2023/04/14 06:53:25;;;;;;;;;;;;;;;;;;4952095;29;8406;-94
2023/04/14 06:55:57;;;;;;;;;;;;;;;;;;4964548;28;8703;-94
2023/04/14 06:58:24;;;;;;;;;;;;;;;;;;4957620;28;7338;-94
2023/04/14 07:00:54;;;;;;;;;;;;;;;;;;4959960;28;6829;-94
2023/04/14 07:03:20;;;;;;;;;;;;;;;;;;4956671;28;7085;-94
2023/04/14 07:05:46;;;;;;;;;;;;;;;;;;4950404;28;8500;-94
2023/04/14 07:08:11;;;;;;;;;;;;;;;;;;4950830;29;8664;-94
2023/04/14 07:10:36;;;;;;;;;;;;;;;;;;4950591;28;8414;-93
2023/04/14 07:13:02;;;;;;;;;;;;;;;;;;4969730;28;8509;-95
2023/04/14 07:15:28;;;;;;;;;;;;;;;;;;4949222;29;8634;-94
2023/04/14 07:17:54;;;;;;;;;;;;;;;;;;4975373;28;7293;-96
2023/04/14 07:20:19;;;;;;;;;;;;;;;;;;4965441;28;7043;-94
2023/04/14 07:22:45;;;;;;;;;;;;;;;;;;4975781;28;7151;-95
2023/04/14 07:25:10;;;;;;;;;;;;;;;;;;4975816;28;7368;-92
2023/04/14 07:27:36;;;;;;;;;;;;;;;;;;4977736;28;8387;-93
2023/04/14 07:30:02;;;;;;;;;;;;;;;;;;4973996;28;8444;-93
2023/04/14 07:32:28;;;;;;;;;;;;;;;;;;4964769;28;6858;-94
2023/04/14 07:34:53;;;;;;;;;;;;;;;;;;4948530;28;7249;-94
2023/04/14 07:37:19;;;;;;;;;;;;;;;;;;4970684;28;7005;-93
2023/04/14 07:39:45;;;;;;;;;;;;;;;;;;4968291;28;7159;-93
2023/04/14 07:42:11;;;;;;;;;;;;;;;;;;4955004;28;7130;-94
2023/04/14 07:44:37;;;;;;;;;;;;;;;;;;4969009;28;6849;-91
2023/04/14 07:47:03;;;;;;;;;;;;;;;;;;4965046;28;6995;-93
2023/04/14 07:49:28;;;;;;;;;;;;;;;;;;4967514;28;7139;-94
2023/04/14 07:51:53;;;;;;;;;;;;;;;;;;4960163;28;6949;-94
2023/04/14 07:54:19;;;;;;;;;;;;;;;;;;4947057;29;8756;-92
2023/04/14 07:56:45;;;;;;;;;;;;;;;;;;4934016;29;7256;-93
2023/04/14 07:59:11;;;;;;;;;;;;;;;;;;4947933;28;6850;-92
2023/04/14 08:01:37;;;;;;;;;;;;;;;;;;4967981;28;8418;-93
2023/04/14 08:04:02;;;;;;;;;;;;;;;;;;4967596;28;7220;-94
2023/04/14 08:06:28;;;;;;;;;;;;;;;;;;4968870;28;6933;-94
2023/04/14 08:08:53;;;;;;;;;;;;;;;;;;4968694;28;7311;-94
2023/04/14 08:11:19;;;;;;;;;;;;;;;;;;4968775;28;7221;-93
2023/04/14 08:13:45;;;;;;;;;;;;;;;;;;4980085;28;7051;-93
2023/04/14 08:16:11;;;;;;;;;;;;;;;;;;4988936;28;8339;-96
2023/04/14 08:18:37;;;;;;;;;;;;;;;;;;4988334;28;8320;-95
2023/04/14 08:21:03;;;;;;;;;;;;;;;;;;4987994;28;6876;-95
2023/04/14 08:23:28;;;;;;;;;;;;;;;;;;4987405;28;7003;-96
2023/04/14 08:25:54;;;;;;;;;;;;;;;;;;4988011;28;6853;-94
2023/04/14 08:28:20;;;;;;;;;;;;;;;;;;4990018;28;7021;-95
2023/04/14 08:49:48;;;;;;;;;;;;;;;;;;5414389;23;6741;-95
2023/04/14 08:52:20;;;;;;;;;;;;;;;;;;5153456;23;7529;-95
2023/04/14 10:25:16;;;;;;;;;;;;;;;;;;5926550;23;7638;-93
